createdAt,value
2022-08-17T00:00:43.513Z,16.50
2022-08-17T00:03:15.140Z,15.90
2022-08-17T00:05:49.098Z,16.00
2022-08-17T00:08:20.252Z,15.93
2022-08-17T00:10:49.487Z,16.55
2022-08-17T00:13:21.333Z,16.75
2022-08-17T00:15:49.846Z,17.63
2022-08-17T00:19:04.185Z,16.48
2022-08-17T00:21:11.779Z,16.83
2022-08-17T00:23:44.250Z,16.92
2022-08-17T00:26:44.352Z,18.10
2022-08-17T00:29:05.817Z,18.02
2022-08-17T00:31:36.292Z,16.88
2022-08-17T00:34:06.880Z,16.92
2022-08-17T00:36:36.858Z,17.20
2022-08-17T00:39:07.333Z,17.67
2022-08-17T00:41:35.951Z,18.38
2022-08-17T00:44:09.979Z,18.00
2022-08-17T00:46:43.242Z,18.13
2022-08-17T00:49:19.412Z,18.40
2022-08-17T00:51:53.818Z,16.85
2022-08-17T00:54:31.473Z,17.15
2022-08-17T00:57:05.505Z,17.83
2022-08-17T00:59:38.802Z,17.88
2022-08-17T01:02:09.875Z,17.80
2022-08-17T01:04:38.780Z,19.63
2022-08-17T01:07:11.264Z,18.40
2022-08-17T01:09:42.703Z,17.92
2022-08-17T01:12:12.383Z,18.85
2022-08-17T01:14:41.415Z,18.48
2022-08-17T01:17:12.362Z,18.15
2022-08-17T01:19:45.314Z,18.08
2022-08-17T01:22:21.240Z,18.35
2022-08-17T01:24:53.610Z,20.63
2022-08-17T01:27:22.968Z,20.33
2022-08-17T01:29:58.642Z,19.73
2022-08-17T01:32:30.452Z,18.88
2022-08-17T01:35:00.690Z,19.98
2022-08-17T01:37:35.383Z,20.70
2022-08-17T01:40:10.385Z,21.42
2022-08-17T01:42:44.270Z,20.00
2022-08-17T01:45:17.583Z,19.92
2022-08-17T01:47:46.344Z,19.23
2022-08-17T01:50:17.438Z,19.52
2022-08-17T01:52:49.756Z,20.02
2022-08-17T01:55:25.864Z,18.65
2022-08-17T01:57:55.650Z,18.00
2022-08-17T02:00:24.103Z,18.92
2022-08-17T02:02:52.532Z,18.42
2022-08-17T02:05:20.981Z,19.50
2022-08-17T02:08:00.349Z,21.83
2022-08-17T02:10:33.699Z,21.60
2022-08-17T02:13:02.747Z,19.67
2022-08-17T02:15:32.029Z,20.60
2022-08-17T02:18:00.759Z,21.75
2022-08-17T02:20:41.790Z,20.52
2022-08-17T02:23:13.256Z,19.67
2022-08-17T02:25:47.783Z,19.85
2022-08-17T02:28:16.538Z,21.38
2022-08-17T02:30:59.265Z,22.15
2022-08-17T02:33:42.054Z,22.02
2022-08-17T02:36:14.610Z,23.65
2022-08-17T02:38:44.651Z,23.73
2022-08-17T02:41:13.829Z,22.75
2022-08-17T02:43:44.893Z,22.88
2022-08-17T02:46:13.782Z,22.40
2022-08-17T02:48:42.094Z,22.92
2022-08-17T02:51:10.600Z,20.95
2022-08-17T02:53:38.919Z,20.92
2022-08-17T02:56:08.681Z,21.13
2022-08-17T02:58:37.046Z,22.17
2022-08-17T03:01:06.878Z,22.17
2022-08-17T03:03:36.089Z,23.65
2022-08-17T03:06:05.423Z,21.30
2022-08-17T03:08:33.807Z,21.83
2022-08-17T03:11:02.097Z,22.40
2022-08-17T03:13:32.009Z,23.45
2022-08-17T03:16:00.779Z,21.83
2022-08-17T03:18:29.195Z,22.73
2022-08-17T03:21:01.738Z,22.67
2022-08-17T03:23:31.155Z,21.88
2022-08-17T03:26:02.751Z,21.55
2022-08-17T03:28:32.398Z,23.83
2022-08-17T03:31:03.147Z,23.40
2022-08-17T03:33:33.724Z,23.10
2022-08-17T03:36:04.311Z,23.45
2022-08-17T03:38:39.468Z,23.92
2022-08-17T03:41:08.603Z,24.25
2022-08-17T03:43:38.243Z,20.65
2022-08-17T03:46:28.837Z,20.75
2022-08-17T03:49:21.238Z,20.08
2022-08-17T03:52:06.732Z,23.10
2022-08-17T03:54:52.294Z,29.05
2022-08-17T03:57:20.742Z,24.77
2022-08-17T03:59:51.064Z,26.85
2022-08-17T04:02:23.543Z,51.13
2022-08-17T04:04:54.364Z,29.02
2022-08-17T04:07:24.965Z,58.35
2022-08-17T04:09:53.457Z,36.30
2022-08-17T04:12:25.644Z,25.55
2022-08-17T04:14:56.388Z,26.02
2022-08-17T04:17:27.453Z,26.57
2022-08-17T04:19:57.102Z,27.60
2022-08-17T04:22:33.203Z,26.73
2022-08-17T04:25:05.462Z,27.48
2022-08-17T04:27:33.998Z,26.95
2022-08-17T04:30:03.719Z,28.17
2022-08-17T04:33:03.494Z,36.00
2022-08-17T04:35:27.303Z,34.83
2022-08-17T04:40:42.439Z,24.15
2022-08-17T04:43:14.275Z,26.85
2022-08-17T04:45:55.544Z,25.92
2022-08-17T04:48:35.368Z,27.08
2022-08-17T04:51:10.171Z,26.25
2022-08-17T04:53:40.438Z,23.65
2022-08-17T04:56:16.045Z,23.67
2022-08-17T04:58:46.324Z,23.42
2022-08-17T05:01:17.341Z,23.50
2022-08-17T05:03:51.992Z,21.70
2022-08-17T05:06:20.283Z,21.67
2022-08-17T05:08:48.541Z,23.83
2022-08-17T05:11:16.997Z,23.42
2022-08-17T05:13:45.231Z,20.73
2022-08-17T05:16:15.081Z,20.92
2022-08-17T05:18:45.775Z,18.65
2022-08-17T05:21:16.572Z,24.13
2022-08-17T05:23:50.272Z,20.30
2022-08-17T05:26:25.915Z,22.88
2022-08-17T05:28:59.479Z,22.85
2022-08-17T05:31:29.795Z,21.48
2022-08-17T05:34:00.917Z,19.80
2022-08-17T05:36:43.414Z,24.48
2022-08-17T05:39:16.522Z,19.92
2022-08-17T05:41:48.111Z,19.88
2022-08-17T05:44:17.203Z,18.75
2022-08-17T05:46:49.934Z,19.10
2022-08-17T05:49:22.453Z,17.95
2022-08-17T05:52:09.434Z,20.52
2022-08-17T05:54:50.107Z,18.88
2022-08-17T05:57:53.048Z,16.92
2022-08-17T06:00:30.193Z,17.80
2022-08-17T06:03:23.689Z,16.23
2022-08-17T06:06:22.050Z,18.45
2022-08-17T06:11:38.082Z,20.13
2022-08-17T06:14:22.232Z,19.40
2022-08-17T06:16:56.247Z,17.70
2022-08-17T06:19:35.049Z,17.88
2022-08-17T06:22:05.881Z,15.90
2022-08-17T06:24:38.896Z,24.27
2022-08-17T06:27:20.445Z,18.80
2022-08-17T06:29:55.048Z,16.95
2022-08-17T06:32:23.414Z,15.18
2022-08-17T06:34:53.808Z,17.00
2022-08-17T06:37:39.239Z,19.33
2022-08-17T06:40:31.879Z,27.98
2022-08-17T06:43:14.106Z,19.27
2022-08-17T06:45:49.305Z,17.33
2022-08-17T06:48:25.618Z,17.65
2022-08-17T06:51:00.128Z,15.65
2022-08-17T06:53:35.923Z,17.60
2022-08-17T06:56:08.789Z,22.58
2022-08-17T06:58:40.307Z,26.88
2022-08-17T07:01:11.687Z,26.35
2022-08-17T07:03:46.174Z,27.38
2022-08-17T07:06:20.789Z,27.00
2022-08-17T07:08:56.673Z,27.23
2022-08-17T07:11:31.415Z,29.77
2022-08-17T07:14:17.125Z,32.42
2022-08-17T07:16:51.428Z,29.80
2022-08-17T07:19:23.177Z,33.33
2022-08-17T07:21:58.544Z,32.60
2022-08-17T07:24:35.725Z,33.95
2022-08-17T07:27:09.862Z,32.28
2022-08-17T07:29:46.428Z,37.83
2022-08-17T07:32:19.066Z,32.78
2022-08-17T07:35:21.222Z,35.97
2022-08-17T07:38:25.185Z,34.47
2022-08-17T07:41:03.601Z,31.83
2022-08-17T07:43:34.060Z,29.30
2022-08-17T07:46:24.991Z,27.88
2022-08-17T07:48:55.436Z,29.55
2022-08-17T07:51:27.750Z,34.15
2022-08-17T07:54:13.596Z,33.72
2022-08-17T07:56:45.968Z,30.38
2022-08-17T07:59:18.152Z,22.00
2022-08-17T08:02:06.148Z,33.22
2022-08-17T08:04:59.158Z,31.58
2022-08-17T08:07:30.445Z,30.25
2022-08-17T08:10:09.598Z,22.10
2022-08-17T08:12:42.092Z,29.05
2022-08-17T08:15:19.092Z,27.60
2022-08-17T08:17:51.966Z,26.60
2022-08-17T08:20:51.379Z,23.75
2022-08-17T08:23:25.724Z,23.92
2022-08-17T08:26:05.248Z,20.90
2022-08-17T08:28:44.566Z,29.13
2022-08-17T08:31:25.301Z,22.23
2022-08-17T08:34:09.176Z,18.23
2022-08-17T08:37:17.645Z,23.13
2022-08-17T08:39:59.047Z,21.23
2022-08-17T08:42:36.376Z,21.00
2022-08-17T08:45:13.781Z,22.33
2022-08-17T08:48:05.105Z,22.25
2022-08-17T08:50:43.859Z,18.33
2022-08-17T08:53:23.552Z,18.83
2022-08-17T08:55:57.346Z,20.52
2022-08-17T08:58:42.326Z,17.58
2022-08-17T09:01:19.530Z,15.73
2022-08-17T09:04:25.857Z,15.68
2022-08-17T09:07:07.224Z,17.85
2022-08-17T09:09:46.672Z,18.92
2022-08-17T09:12:21.767Z,18.05
2022-08-17T09:14:59.583Z,17.08
2022-08-17T09:17:37.615Z,15.85
2022-08-17T09:20:27.509Z,17.10
2022-08-17T09:23:00.873Z,19.63
2022-08-17T09:25:36.527Z,18.67
2022-08-17T09:28:08.489Z,18.75
2022-08-17T09:30:45.535Z,13.93
2022-08-17T09:33:17.022Z,18.55
2022-08-17T09:35:50.372Z,19.70
2022-08-17T09:38:32.158Z,16.92
2022-08-17T09:41:10.627Z,19.10
2022-08-17T09:43:45.830Z,19.50
2022-08-17T09:46:19.522Z,19.23
2022-08-17T09:48:55.686Z,16.85
2022-08-17T09:51:30.393Z,16.15
2022-08-17T09:54:27.767Z,16.85
2022-08-17T09:57:25.828Z,14.50
2022-08-17T10:00:08.074Z,14.30
2022-08-17T10:03:09.944Z,12.40
2022-08-17T10:05:46.735Z,12.32
2022-08-17T10:08:25.593Z,11.18
2022-08-17T10:11:07.055Z,11.48
2022-08-17T10:13:53.025Z,12.00
2022-08-17T10:16:28.606Z,11.52
2022-08-17T10:19:10.687Z,13.32
2022-08-17T10:22:32.313Z,15.00
2022-08-17T10:25:22.316Z,14.73
2022-08-17T10:27:57.780Z,16.20
2022-08-17T10:30:31.005Z,16.80
2022-08-17T10:33:02.265Z,15.27
2022-08-17T10:35:34.162Z,15.80
2022-08-17T10:38:28.653Z,15.35
2022-08-17T10:41:01.589Z,13.02
2022-08-17T10:44:37.498Z,14.15
2022-08-17T10:46:52.202Z,12.18
2022-08-17T10:49:32.688Z,10.95
2022-08-17T10:52:03.205Z,12.63
2022-08-17T10:54:40.081Z,12.10
2022-08-17T10:57:36.620Z,12.40
2022-08-17T11:00:12.984Z,13.43
2022-08-17T11:02:49.749Z,15.32
2022-08-17T11:05:43.743Z,13.10
2022-08-17T11:08:36.202Z,13.63
2022-08-17T11:11:50.066Z,11.98
2022-08-17T11:14:39.948Z,11.82
2022-08-17T11:17:23.175Z,11.32
2022-08-17T11:20:19.516Z,12.95
2022-08-17T11:23:15.206Z,12.73
2022-08-17T11:25:51.917Z,10.85
2022-08-17T11:28:26.645Z,10.80
2022-08-17T11:30:58.959Z,10.23
2022-08-17T11:33:54.087Z,13.35
2022-08-17T11:36:48.486Z,11.15
2022-08-17T11:39:29.909Z,10.73
2022-08-17T11:42:05.556Z,13.00
2022-08-17T11:44:48.024Z,10.98
2022-08-17T11:47:39.489Z,11.15
2022-08-17T11:50:45.047Z,10.90
2022-08-17T11:53:46.964Z,10.52
2022-08-17T11:56:33.733Z,10.50
2022-08-17T11:59:02.941Z,10.25
2022-08-17T12:01:55.801Z,11.70
2022-08-17T12:04:31.678Z,10.65
2022-08-17T12:07:08.374Z,12.48
2022-08-17T12:09:42.435Z,10.15
2022-08-17T12:12:15.144Z,9.63
2022-08-17T12:15:09.441Z,11.40
2022-08-17T12:17:46.739Z,9.50
2022-08-17T12:20:23.477Z,10.43
2022-08-17T12:23:03.735Z,10.30
2022-08-17T12:25:38.586Z,10.30
2022-08-17T12:28:20.146Z,13.48
2022-08-17T12:30:51.962Z,14.35
2022-08-17T12:33:28.461Z,10.18
2022-08-17T12:36:00.148Z,10.27
2022-08-17T12:38:32.384Z,10.68
2022-08-17T12:41:23.453Z,9.32
2022-08-17T12:46:25.198Z,11.13
2022-08-17T12:48:59.964Z,10.48
2022-08-17T12:51:29.992Z,11.07
2022-08-17T12:54:00.653Z,11.90
2022-08-17T12:56:29.977Z,10.45
2022-08-17T12:58:58.650Z,10.27
2022-08-17T13:01:27.800Z,11.37
2022-08-17T13:03:59.866Z,9.70
2022-08-17T13:06:33.284Z,10.60
2022-08-17T13:11:46.964Z,10.50
2022-08-17T13:14:18.453Z,9.68
2022-08-17T13:16:54.044Z,9.30
2022-08-17T13:19:39.804Z,12.40
2022-08-17T13:22:13.417Z,9.77
2022-08-17T13:24:54.547Z,9.15
2022-08-17T13:29:56.487Z,9.77
2022-08-17T13:32:39.948Z,12.27
2022-08-17T13:35:39.455Z,10.63
2022-08-17T13:38:11.820Z,10.35
2022-08-17T13:40:50.243Z,8.90
2022-08-17T13:43:44.620Z,9.82
2022-08-17T13:46:22.601Z,9.48
2022-08-17T13:49:03.083Z,8.53
2022-08-17T13:51:43.323Z,7.82
2022-08-17T13:54:28.947Z,8.00
2022-08-17T13:57:01.322Z,9.38
2022-08-17T13:59:54.395Z,12.27
2022-08-17T14:02:28.552Z,13.23
2022-08-17T14:04:58.490Z,9.10
2022-08-17T14:07:34.974Z,9.35
2022-08-17T14:10:08.743Z,9.68
2022-08-17T14:12:40.316Z,9.15
2022-08-17T14:15:10.826Z,13.60
2022-08-17T14:17:39.363Z,16.63
2022-08-17T14:20:11.817Z,9.20
2022-08-17T14:22:45.076Z,8.90
2022-08-17T14:25:15.393Z,10.55
2022-08-17T14:27:52.883Z,9.70
2022-08-17T14:30:26.019Z,12.30
2022-08-17T14:32:56.634Z,13.13
2022-08-17T14:35:27.488Z,13.10
2022-08-17T14:37:57.731Z,8.60
2022-08-17T14:40:27.281Z,9.37
2022-08-17T14:42:57.821Z,9.40
2022-08-17T14:45:30.186Z,13.20
2022-08-17T14:48:01.217Z,11.98
2022-08-17T14:50:29.531Z,8.63
2022-08-17T14:53:04.551Z,9.63
2022-08-17T14:55:32.986Z,9.32
2022-08-17T14:58:01.471Z,10.27
2022-08-17T15:00:32.082Z,9.20
2022-08-17T15:03:02.483Z,8.98
2022-08-17T15:05:33.759Z,8.77
2022-08-17T15:08:07.966Z,11.27
2022-08-17T15:10:39.144Z,8.80
2022-08-17T15:13:21.639Z,10.45
2022-08-17T15:15:50.867Z,9.10
2022-08-17T15:18:20.106Z,10.65
2022-08-17T15:20:50.137Z,10.40
2022-08-17T15:23:22.621Z,9.07
2022-08-17T15:25:53.079Z,10.38
2022-08-17T15:28:22.838Z,13.30
2022-08-17T15:30:52.161Z,12.93
2022-08-17T15:33:29.242Z,10.70
2022-08-17T15:35:59.465Z,11.45
2022-08-17T15:38:39.186Z,10.77
2022-08-17T15:41:08.633Z,10.75
2022-08-17T15:43:37.711Z,8.10
2022-08-17T15:46:12.192Z,11.02
2022-08-17T15:48:42.707Z,8.20
2022-08-17T15:51:19.660Z,8.95
2022-08-17T15:53:52.597Z,9.95
2022-08-17T15:56:23.081Z,11.45
2022-08-17T15:58:52.138Z,11.30
2022-08-17T16:03:14.371Z,12.18
2022-08-17T16:04:30.199Z,9.00
2022-08-17T16:06:59.603Z,9.60
2022-08-17T16:09:29.783Z,11.45
2022-08-17T16:11:58.099Z,11.38
2022-08-17T16:14:34.240Z,9.27
2022-08-17T16:17:04.564Z,11.00
2022-08-17T16:19:34.386Z,10.07
2022-08-17T16:22:07.636Z,10.27
2022-08-17T16:24:38.433Z,10.43
2022-08-17T16:27:12.670Z,9.55
2022-08-17T16:29:42.416Z,9.35
2022-08-17T16:32:14.639Z,11.32
2022-08-17T16:34:43.636Z,11.02
2022-08-17T16:37:14.228Z,9.43
2022-08-17T16:39:43.936Z,12.30
2022-08-17T16:42:24.607Z,9.40
2022-08-17T16:44:53.772Z,9.60
2022-08-17T16:47:22.682Z,10.07
2022-08-17T16:49:51.645Z,8.57
2022-08-17T16:52:32.645Z,8.57
2022-08-17T16:55:05.057Z,8.95
2022-08-17T16:57:33.403Z,8.82
2022-08-17T17:00:01.884Z,8.40
2022-08-17T17:02:32.593Z,9.30
2022-08-17T17:05:09.141Z,8.95
2022-08-17T17:08:00.910Z,8.98
2022-08-17T17:10:37.189Z,8.52
2022-08-17T17:13:09.243Z,9.65
2022-08-17T17:15:49.413Z,11.60
2022-08-17T17:18:20.173Z,8.60
2022-08-17T17:20:56.030Z,10.88
2022-08-17T17:23:35.386Z,10.23
2022-08-17T17:26:17.283Z,15.15
2022-08-17T17:29:02.019Z,24.08
2022-08-17T17:31:39.346Z,15.77
2022-08-17T17:34:11.353Z,9.82
2022-08-17T17:36:42.806Z,8.38
2022-08-17T17:39:16.720Z,9.95
2022-08-17T17:41:50.525Z,9.35
2022-08-17T17:44:25.701Z,11.57
2022-08-17T17:46:58.438Z,10.55
2022-08-17T17:49:29.739Z,9.20
2022-08-17T17:52:10.298Z,9.88
2022-08-17T17:55:06.999Z,9.77
2022-08-17T17:57:50.660Z,10.73
2022-08-17T18:00:24.378Z,10.43
2022-08-17T18:03:06.453Z,11.10
2022-08-17T18:05:53.001Z,9.20
2022-08-17T18:08:34.870Z,10.38
2022-08-17T18:11:14.662Z,8.52
2022-08-17T18:14:11.251Z,9.32
2022-08-17T18:16:42.862Z,8.52
2022-08-17T18:19:14.428Z,10.25
2022-08-17T18:21:47.038Z,14.90
2022-08-17T18:24:15.652Z,10.38
2022-08-17T18:26:50.265Z,8.20
2022-08-17T18:29:31.314Z,11.25
2022-08-17T18:32:28.453Z,19.02
2022-08-17T18:35:00.150Z,9.13
2022-08-17T18:37:37.822Z,10.20
2022-08-17T18:40:26.273Z,9.52
2022-08-17T18:43:03.020Z,9.13
2022-08-17T18:45:40.873Z,9.68
2022-08-17T18:48:29.537Z,9.50
2022-08-17T18:51:00.658Z,11.65
2022-08-17T18:53:38.099Z,9.80
2022-08-17T18:56:26.750Z,14.80
2022-08-17T18:59:11.981Z,13.05
2022-08-17T19:01:59.716Z,7.97
2022-08-17T19:04:35.793Z,8.20
2022-08-17T19:07:11.775Z,10.52
2022-08-17T19:09:44.957Z,10.55
2022-08-17T19:12:27.169Z,9.23
2022-08-17T19:14:56.823Z,14.75
2022-08-17T19:17:35.436Z,19.05
2022-08-17T19:20:11.318Z,11.32
2022-08-17T19:22:54.540Z,13.48
2022-08-17T19:25:27.595Z,8.48
2022-08-17T19:28:00.877Z,10.93
2022-08-17T19:30:32.172Z,13.70
2022-08-17T19:33:02.886Z,8.45
2022-08-17T19:35:39.459Z,15.13
2022-08-17T19:38:13.625Z,9.57
2022-08-17T19:40:59.268Z,9.65
2022-08-17T19:43:39.392Z,7.40
2022-08-17T19:46:15.802Z,7.75
2022-08-17T19:48:53.385Z,9.57
2022-08-17T19:51:45.163Z,9.93
2022-08-17T19:54:20.511Z,7.07
2022-08-17T19:56:57.988Z,9.73
2022-08-17T19:59:48.967Z,10.68
2022-08-17T20:02:34.742Z,12.48
2022-08-17T20:05:09.374Z,8.07
2022-08-17T20:07:46.419Z,7.63
2022-08-17T20:10:21.851Z,7.70
2022-08-17T20:12:52.246Z,11.70
2022-08-17T20:15:26.895Z,8.13
2022-08-17T20:17:58.425Z,9.75
2022-08-17T20:20:34.687Z,8.48
2022-08-17T20:23:10.976Z,8.25
2022-08-17T20:25:47.190Z,7.35
2022-08-17T20:28:23.415Z,9.10
2022-08-17T20:30:52.875Z,11.00
2022-08-17T20:33:27.736Z,8.52
2022-08-17T20:36:19.399Z,11.73
2022-08-17T20:38:50.409Z,10.55
2022-08-17T20:41:22.383Z,11.13
2022-08-17T20:44:03.427Z,8.35
2022-08-17T20:46:52.240Z,10.13
2022-08-17T20:49:27.374Z,8.45
2022-08-17T20:52:02.794Z,7.35
2022-08-17T20:54:52.825Z,9.63
2022-08-17T20:57:47.392Z,10.15
2022-08-17T21:00:47.042Z,10.90
2022-08-17T21:03:51.901Z,9.77
2022-08-17T21:06:25.065Z,9.52
2022-08-17T21:08:59.024Z,9.32
2022-08-17T21:12:02.627Z,8.57
2022-08-17T21:14:45.265Z,8.68
2022-08-17T21:17:31.144Z,11.93
2022-08-17T21:20:11.404Z,10.60
2022-08-17T21:22:53.620Z,9.20
2022-08-17T21:25:56.010Z,9.40
2022-08-17T21:28:35.416Z,10.05
2022-08-17T21:31:08.705Z,9.85
2022-08-17T21:33:39.598Z,13.50
2022-08-17T21:36:26.614Z,10.05
2022-08-17T21:39:08.709Z,9.80
2022-08-17T21:41:52.861Z,9.65
2022-08-17T21:44:30.525Z,9.75
2022-08-17T21:47:14.661Z,10.02
2022-08-17T21:49:43.651Z,11.77
2022-08-17T21:52:15.949Z,9.85
2022-08-17T21:54:51.679Z,10.38
2022-08-17T21:57:27.518Z,9.75
2022-08-17T21:59:59.266Z,12.00
2022-08-17T22:02:32.222Z,10.55
2022-08-17T22:05:03.253Z,10.90
2022-08-17T22:07:38.589Z,13.80
2022-08-17T22:10:09.213Z,16.25
2022-08-17T22:12:38.918Z,13.82
2022-08-17T22:15:09.777Z,14.65
2022-08-17T22:17:42.247Z,14.68
2022-08-17T22:20:14.626Z,13.85
2022-08-17T22:23:39.974Z,12.35
2022-08-17T22:26:12.731Z,14.60
2022-08-17T22:28:46.861Z,16.58
2022-08-17T22:31:17.223Z,17.92
2022-08-17T22:33:49.004Z,15.95
2022-08-17T22:36:29.446Z,19.35
2022-08-17T22:39:03.124Z,16.63
2022-08-17T22:41:43.927Z,13.77
2022-08-17T22:44:23.209Z,18.30
2022-08-17T22:47:06.771Z,15.73
2022-08-17T22:49:54.045Z,16.02
2022-08-17T22:52:34.668Z,17.45
2022-08-17T22:55:26.664Z,15.98
2022-08-17T22:58:12.113Z,15.70
2022-08-17T23:00:44.910Z,16.73
2022-08-17T23:03:18.978Z,15.27
2022-08-17T23:05:49.890Z,12.30
2022-08-17T23:08:21.424Z,17.38
2022-08-17T23:10:50.339Z,12.77
2022-08-17T23:13:18.621Z,12.95
2022-08-17T23:15:52.149Z,16.73
2022-08-17T23:18:23.515Z,14.07
2022-08-17T23:20:54.720Z,15.60
2022-08-17T23:23:23.979Z,15.95
2022-08-17T23:25:52.349Z,17.95
2022-08-17T23:28:21.891Z,14.93
2022-08-17T23:30:54.070Z,13.98
2022-08-17T23:33:29.933Z,13.30
2022-08-17T23:35:58.876Z,21.88
2022-08-17T23:38:27.601Z,13.60
2022-08-17T23:41:01.021Z,13.38
2022-08-17T23:46:03.723Z,13.02
2022-08-17T23:48:37.108Z,13.60
2022-08-17T23:51:13.405Z,11.52
2022-08-17T23:53:47.685Z,12.00
2022-08-17T23:56:24.095Z,13.20
2022-08-17T23:58:56.041Z,13.07
